Time;durP1;ratioP1;P1;durP2;ratioP2;P2;SDS_P1;SDS_P2;PMS_P1;PMS_P2;Temp;Humidity;BMP_temperature;BMP_pressure;BME280_temperature;BME280_humidity;BME280_pressure;Samples;Min_cycle;Max_cycle;Signal;HPM_P1;HPM_P2
2023/10/23 00:01:43;;;;;;;;;;;12.40;99.90;;;;;;5075615;28;19970;-67
2023/10/23 00:04:09;;;;;;;;;;;12.40;99.90;;;;;;5076090;28;20035;-67
2023/10/23 00:06:35;;;;;;;;;;;12.40;99.90;;;;;;5075708;28;19956;-66
2023/10/23 00:09:01;;;;;;;;;;;12.40;99.90;;;;;;5075809;28;19916;-67
2023/10/23 00:11:28;;;;;;;;;;;12.40;99.90;;;;;;5075591;28;19930;-66
2023/10/23 00:13:54;;;;;;;;;;;12.40;99.90;;;;;;5055475;28;19916;-67
2023/10/23 00:16:21;;;;;;;;;;;12.40;99.90;;;;;;5058025;28;19920;-66
2023/10/23 00:18:48;;;;;;;;;;;12.30;99.90;;;;;;5095866;28;19912;-66
2023/10/23 00:21:13;;;;;;;;;;;12.30;99.90;;;;;;5095661;28;20392;-66
2023/10/23 00:23:39;;;;;;;;;;;12.30;99.90;;;;;;5095851;28;19912;-66
2023/10/23 00:26:05;;;;;;;;;;;12.30;99.90;;;;;;5095877;28;19931;-67
2023/10/23 00:28:32;;;;;;;;;;;12.40;99.90;;;;;;5085039;28;19962;-67
2023/10/23 00:30:57;;;;;;;;;;;12.40;99.90;;;;;;5074113;28;19931;-67
2023/10/23 00:33:23;;;;;;;;;;;12.40;99.90;;;;;;5075587;28;19912;-66
2023/10/23 00:35:49;;;;;;;;;;;12.40;99.90;;;;;;5075558;28;20186;-66
2023/10/23 00:38:15;;;;;;;;;;;12.50;99.90;;;;;;5074154;28;19913;-67
2023/10/23 00:40:40;;;;;;;;;;;12.50;99.90;;;;;;5075279;28;19916;-66
2023/10/23 00:43:17;;;;;;;;;;;12.40;99.90;;;;;;5074189;28;20376;-67
2023/10/23 00:45:48;;;;;;;;;;;12.50;99.90;;;;;;5074289;28;19913;-67
2023/10/23 00:48:14;;;;;;;;;;;12.60;99.90;;;;;;5075396;28;19924;-66
2023/10/23 00:50:40;;;;;;;;;;;12.50;99.90;;;;;;5073965;28;19912;-66
2023/10/23 00:53:05;;;;;;;;;;;12.40;99.90;;;;;;5075424;28;19913;-67
2023/10/23 00:55:31;;;;;;;;;;;12.40;99.90;;;;;;5075500;28;19931;-67
2023/10/23 00:57:57;;;;;;;;;;;12.40;99.90;;;;;;5077633;28;19916;-67
2023/10/23 01:00:23;;;;;;;;;;;12.40;99.90;;;;;;5078859;28;19952;-67
2023/10/23 01:02:49;;;;;;;;;;;12.40;99.90;;;;;;5077421;28;19917;-66
2023/10/23 01:05:15;;;;;;;;;;;12.50;99.90;;;;;;5078850;28;20003;-66
2023/10/23 01:07:40;;;;;;;;;;;12.40;99.90;;;;;;5075625;28;19955;-66
2023/10/23 01:10:06;;;;;;;;;;;12.40;99.90;;;;;;5077514;28;19913;-67
2023/10/23 01:12:32;;;;;;;;;;;12.40;99.90;;;;;;5077120;28;19916;-66
2023/10/23 01:14:58;;;;;;;;;;;12.40;99.90;;;;;;5077265;28;19912;-66
2023/10/23 01:17:23;;;;;;;;;;;12.50;99.90;;;;;;5088175;28;19916;-67
2023/10/23 01:19:49;;;;;;;;;;;12.50;99.90;;;;;;5097397;28;19944;-66
2023/10/23 01:22:15;;;;;;;;;;;12.50;99.90;;;;;;5097414;28;19912;-66
2023/10/23 01:24:43;;;;;;;;;;;12.50;99.90;;;;;;5082543;28;19919;-66
2023/10/23 01:27:08;;;;;;;;;;;12.40;99.90;;;;;;5078437;28;19962;-66
2023/10/23 01:29:34;;;;;;;;;;;12.40;99.90;;;;;;5076920;28;20381;-66
2023/10/23 01:32:00;;;;;;;;;;;12.40;99.90;;;;;;5076962;28;19916;-66
2023/10/23 01:34:26;;;;;;;;;;;12.40;99.90;;;;;;5077046;28;19920;-66
2023/10/23 01:36:51;;;;;;;;;;;12.50;99.90;;;;;;5076878;28;19923;-67
2023/10/23 01:39:18;;;;;;;;;;;12.50;99.90;;;;;;5076958;28;19912;-67
2023/10/23 01:41:44;;;;;;;;;;;12.40;99.90;;;;;;5076944;28;20283;-66
2023/10/23 01:44:09;;;;;;;;;;;12.50;99.90;;;;;;5076786;28;19916;-67
2023/10/23 01:46:35;;;;;;;;;;;12.50;99.90;;;;;;5076739;28;19913;-66
2023/10/23 01:49:01;;;;;;;;;;;12.50;99.90;;;;;;5076769;28;19971;-66
2023/10/23 01:51:27;;;;;;;;;;;12.50;99.90;;;;;;5078104;28;20365;-66
2023/10/23 01:53:53;;;;;;;;;;;12.60;99.90;;;;;;5078151;28;19913;-67
2023/10/23 01:56:18;;;;;;;;;;;12.60;99.90;;;;;;5076616;28;19968;-67
2023/10/23 01:58:44;;;;;;;;;;;12.60;99.90;;;;;;5076415;28;20381;-67
2023/10/23 02:01:28;;;;;;;;;;;12.60;99.90;;;;;;5076439;28;20398;-67
2023/10/23 02:03:55;;;;;;;;;;;12.70;99.90;;;;;;5076345;28;20487;-66
2023/10/23 02:06:21;;;;;;;;;;;12.70;99.90;;;;;;5076906;28;19963;-66
2023/10/23 02:08:46;;;;;;;;;;;12.70;99.90;;;;;;5077223;28;19912;-66
2023/10/23 02:11:12;;;;;;;;;;;12.80;99.90;;;;;;5075997;28;19916;-66
2023/10/23 02:13:38;;;;;;;;;;;12.80;99.90;;;;;;5075970;28;20011;-66
2023/10/23 02:16:04;;;;;;;;;;;12.80;99.90;;;;;;5077487;28;20024;-66
2023/10/23 02:18:29;;;;;;;;;;;12.80;99.90;;;;;;5095480;28;20286;-66
2023/10/23 02:20:55;;;;;;;;;;;12.80;99.90;;;;;;5096350;28;19942;-66
2023/10/23 02:23:21;;;;;;;;;;;12.80;99.90;;;;;;5097627;28;20007;-66
2023/10/23 02:25:47;;;;;;;;;;;12.80;99.90;;;;;;5096278;28;20300;-66
2023/10/23 02:28:14;;;;;;;;;;;12.80;99.90;;;;;;5088061;28;20286;-67
2023/10/23 02:30:39;;;;;;;;;;;12.70;99.90;;;;;;5075676;28;20007;-66
2023/10/23 02:33:05;;;;;;;;;;;12.80;99.90;;;;;;5077060;28;19959;-66
2023/10/23 02:35:34;;;;;;;;;;;12.80;99.90;;;;;;5077130;28;19955;-66
2023/10/23 02:38:00;;;;;;;;;;;12.90;99.90;;;;;;5075650;28;20003;-66
2023/10/23 02:40:25;;;;;;;;;;;12.90;99.90;;;;;;5077029;28;20404;-67
2023/10/23 02:42:51;;;;;;;;;;;12.80;99.90;;;;;;5075639;28;19963;-67
2023/10/23 02:45:17;;;;;;;;;;;12.80;99.90;;;;;;5075616;28;20009;-66
2023/10/23 02:47:43;;;;;;;;;;;12.80;99.90;;;;;;5075553;28;19924;-67
2023/10/23 02:50:09;;;;;;;;;;;12.80;99.90;;;;;;5076675;28;20388;-67
2023/10/23 02:52:34;;;;;;;;;;;12.80;99.90;;;;;;5075405;28;20007;-67
2023/10/23 02:55:00;;;;;;;;;;;12.80;99.90;;;;;;5075401;28;20441;-67
2023/10/23 02:57:27;;;;;;;;;;;12.90;99.90;;;;;;5076861;28;19915;-67
2023/10/23 02:59:54;;;;;;;;;;;13.00;99.90;;;;;;5075277;28;19912;-67
2023/10/23 03:02:20;;;;;;;;;;;12.90;99.90;;;;;;5075179;28;20392;-67
2023/10/23 03:04:46;;;;;;;;;;;12.80;99.90;;;;;;5076521;28;19912;-67
2023/10/23 03:07:12;;;;;;;;;;;12.70;99.90;;;;;;5075116;28;19913;-67
2023/10/23 03:09:37;;;;;;;;;;;12.70;99.90;;;;;;5075967;28;19919;-66
2023/10/23 03:12:03;;;;;;;;;;;12.60;99.90;;;;;;5074925;28;20384;-66
2023/10/23 03:14:29;;;;;;;;;;;12.70;99.90;;;;;;5075006;28;19958;-67
2023/10/23 03:16:55;;;;;;;;;;;12.70;99.90;;;;;;5082494;28;19908;-67
2023/10/23 03:19:24;;;;;;;;;;;12.70;99.90;;;;;;5096555;28;19912;-67
2023/10/23 03:21:50;;;;;;;;;;;12.60;99.90;;;;;;5095204;28;19916;-67
2023/10/23 03:24:15;;;;;;;;;;;12.60;99.90;;;;;;5085043;28;19966;-67
2023/10/23 03:26:41;;;;;;;;;;;12.60;99.90;;;;;;5074970;28;19920;-66
2023/10/23 03:29:07;;;;;;;;;;;12.50;99.90;;;;;;5074671;28;19913;-66
2023/10/23 03:31:32;;;;;;;;;;;12.40;99.90;;;;;;5074890;28;19966;-67
2023/10/23 03:34:01;;;;;;;;;;;12.40;99.90;;;;;;5076085;28;19919;-66
2023/10/23 03:36:27;;;;;;;;;;;12.40;99.90;;;;;;5076117;28;19913;-66
2023/10/23 03:38:53;;;;;;;;;;;12.30;99.90;;;;;;5076226;28;19919;-67
2023/10/23 03:41:19;;;;;;;;;;;12.40;99.90;;;;;;5076071;28;19913;-66
2023/10/23 03:43:45;;;;;;;;;;;12.30;99.90;;;;;;5075963;28;19913;-66
2023/10/23 03:46:11;;;;;;;;;;;12.30;99.90;;;;;;5076028;28;19913;-67
2023/10/23 03:48:38;;;;;;;;;;;12.30;99.90;;;;;;5075880;28;19912;-67
2023/10/23 03:51:04;;;;;;;;;;;12.30;99.90;;;;;;5074460;28;20532;-66
2023/10/23 03:53:30;;;;;;;;;;;12.30;99.90;;;;;;5075904;28;19912;-67
2023/10/23 03:55:56;;;;;;;;;;;12.30;99.90;;;;;;5075939;28;19920;-67
2023/10/23 03:58:22;;;;;;;;;;;12.20;99.90;;;;;;5075805;28;20378;-66
2023/10/23 04:00:51;;;;;;;;;;;12.20;99.90;;;;;;5075436;28;19920;-66
2023/10/23 04:03:17;;;;;;;;;;;12.20;99.90;;;;;;5076290;28;19923;-66
2023/10/23 04:05:43;;;;;;;;;;;12.10;99.90;;;;;;5075753;28;19995;-67
2023/10/23 04:08:08;;;;;;;;;;;12.10;99.90;;;;;;5075845;28;19951;-66
2023/10/23 04:10:34;;;;;;;;;;;12.10;99.90;;;;;;5075541;28;19917;-66
2023/10/23 04:13:00;;;;;;;;;;;12.00;99.90;;;;;;5075336;28;19966;-67
2023/10/23 04:15:26;;;;;;;;;;;12.00;99.90;;;;;;5075649;28;20316;-66
2023/10/23 04:17:52;;;;;;;;;;;12.00;99.90;;;;;;5089704;28;19982;-66
2023/10/23 04:20:17;;;;;;;;;;;11.90;99.90;;;;;;5095825;28;20422;-67
2023/10/23 04:22:43;;;;;;;;;;;11.90;99.90;;;;;;5095449;28;19999;-67
2023/10/23 04:25:09;;;;;;;;;;;11.80;99.90;;;;;;5095803;28;20433;-66
2023/10/23 04:27:35;;;;;;;;;;;11.80;99.90;;;;;;5092903;28;19998;-66
2023/10/23 04:30:04;;;;;;;;;;;11.80;99.90;;;;;;5075953;28;19913;-66
2023/10/23 04:32:29;;;;;;;;;;;11.80;99.90;;;;;;5079382;28;19967;-66
2023/10/23 04:34:55;;;;;;;;;;;11.80;99.90;;;;;;5079351;28;19913;-67
2023/10/23 04:37:21;;;;;;;;;;;11.70;99.90;;;;;;5079583;28;19912;-66
2023/10/23 04:39:47;;;;;;;;;;;11.70;99.90;;;;;;5079281;28;19920;-66
2023/10/23 04:42:13;;;;;;;;;;;11.60;99.90;;;;;;5079152;28;20381;-66
2023/10/23 04:44:38;;;;;;;;;;;11.60;99.90;;;;;;5079082;28;19913;-66
2023/10/23 04:47:05;;;;;;;;;;;11.50;99.90;;;;;;5079020;28;19916;-66
2023/10/23 04:49:30;;;;;;;;;;;11.50;99.90;;;;;;5078850;28;19918;-66
2023/10/23 04:51:56;;;;;;;;;;;11.40;99.90;;;;;;5078953;28;19912;-66
2023/10/23 04:54:22;;;;;;;;;;;11.40;99.90;;;;;;5078984;28;19918;-66
2023/10/23 04:56:48;;;;;;;;;;;11.40;99.90;;;;;;5078799;28;19991;-66
2023/10/23 04:59:13;;;;;;;;;;;11.40;99.90;;;;;;5078876;28;20446;-66
2023/10/23 05:01:39;;;;;;;;;;;11.40;99.90;;;;;;5078743;28;19920;-66
2023/10/23 05:04:05;;;;;;;;;;;11.40;99.90;;;;;;5078811;28;19919;-66
2023/10/23 05:06:31;;;;;;;;;;;11.30;99.90;;;;;;5078756;28;20293;-66
2023/10/23 05:08:56;;;;;;;;;;;11.30;99.90;;;;;;5078478;28;19916;-66
2023/10/23 05:11:22;;;;;;;;;;;11.30;99.90;;;;;;5078575;28;19970;-66
2023/10/23 05:13:49;;;;;;;;;;;11.30;99.90;;;;;;5078394;28;19917;-66
2023/10/23 05:16:15;;;;;;;;;;;11.20;99.90;;;;;;5078991;28;19920;-66
2023/10/23 05:18:41;;;;;;;;;;;11.20;99.90;;;;;;5098411;28;19915;-66
2023/10/23 05:21:10;;;;;;;;;;;11.20;99.90;;;;;;5098628;28;19912;-66
2023/10/23 05:23:37;;;;;;;;;;;11.20;99.90;;;;;;5097398;28;19912;-66
2023/10/23 05:26:02;;;;;;;;;;;11.20;99.90;;;;;;5096729;28;19916;-66
2023/10/23 05:28:28;;;;;;;;;;;11.10;99.90;;;;;;5088202;28;20058;-66
2023/10/23 05:30:54;;;;;;;;;;;11.20;99.90;;;;;;5078113;28;19916;-66
2023/10/23 05:33:19;;;;;;;;;;;11.20;99.90;;;;;;5077797;28;20003;-66
2023/10/23 05:35:45;;;;;;;;;;;11.20;99.90;;;;;;5078141;28;19912;-66
2023/10/23 05:38:11;;;;;;;;;;;11.20;99.90;;;;;;5078186;28;19912;-65
2023/10/23 05:40:37;;;;;;;;;;;11.30;99.90;;;;;;5077671;28;19915;-65
2023/10/23 05:43:03;;;;;;;;;;;11.30;99.90;;;;;;5078114;28;19963;-65
2023/10/23 05:45:29;;;;;;;;;;;11.30;99.90;;;;;;5077904;28;19912;-65
2023/10/23 05:47:54;;;;;;;;;;;11.50;99.90;;;;;;5075615;28;20399;-65
2023/10/23 05:50:20;;;;;;;;;;;11.70;99.90;;;;;;5077579;28;20392;-65
2023/10/23 05:52:46;;;;;;;;;;;11.80;99.90;;;;;;5077855;28;19928;-65
2023/10/23 05:55:12;;;;;;;;;;;11.70;99.90;;;;;;5078152;28;19919;-65
2023/10/23 05:57:37;;;;;;;;;;;11.70;99.90;;;;;;5077410;28;20333;-65
2023/10/23 06:00:08;;;;;;;;;;;11.80;99.90;;;;;;5076888;28;19963;-65
2023/10/23 06:02:34;;;;;;;;;;;11.90;99.90;;;;;;5077190;28;19920;-65
2023/10/23 06:05:00;;;;;;;;;;;12.00;99.90;;;;;;5077391;28;19920;-65
2023/10/23 06:07:26;;;;;;;;;;;12.10;99.90;;;;;;5076621;28;20267;-66
2023/10/23 06:09:51;;;;;;;;;;;12.20;99.90;;;;;;5077557;28;19912;-66
2023/10/23 06:12:17;;;;;;;;;;;12.40;99.90;;;;;;5076985;28;20412;-66
2023/10/23 06:14:43;;;;;;;;;;;12.40;99.90;;;;;;5077271;28;19920;-66
2023/10/23 06:17:09;;;;;;;;;;;12.50;99.90;;;;;;5078491;28;19912;-66
2023/10/23 06:19:36;;;;;;;;;;;12.50;99.90;;;;;;5076530;28;19954;-66
2023/10/23 06:22:02;;;;;;;;;;;12.50;99.90;;;;;;5077130;28;19919;-67
2023/10/23 06:24:28;;;;;;;;;;;12.50;99.90;;;;;;5077174;28;19913;-66
2023/10/23 06:26:53;;;;;;;;;;;12.50;99.90;;;;;;5076862;28;20350;-66
2023/10/23 06:29:19;;;;;;;;;;;12.60;99.90;;;;;;5076516;28;19923;-66
2023/10/23 06:31:45;;;;;;;;;;;12.70;99.90;;;;;;5077021;28;20309;-66
2023/10/23 06:34:11;;;;;;;;;;;12.70;99.90;;;;;;5076758;28;19912;-66
2023/10/23 06:36:40;;;;;;;;;;;12.80;99.90;;;;;;5076288;28;19931;-67
2023/10/23 06:39:06;;;;;;;;;;;12.80;99.90;;;;;;5076887;28;20300;-66
2023/10/23 06:41:32;;;;;;;;;;;13.00;99.90;;;;;;5076623;28;19912;-66
2023/10/23 06:43:58;;;;;;;;;;;12.90;99.90;;;;;;5076582;28;20286;-67
2023/10/23 06:46:23;;;;;;;;;;;13.10;99.90;;;;;;5075927;28;19919;-67
2023/10/23 06:48:49;;;;;;;;;;;13.40;99.90;;;;;;5076433;28;19920;-66
2023/10/23 06:51:15;;;;;;;;;;;13.80;99.90;;;;;;5076152;28;19916;-66
2023/10/23 06:53:41;;;;;;;;;;;14.00;99.90;;;;;;5076133;28;19965;-66
2023/10/23 06:56:10;;;;;;;;;;;14.40;99.90;;;;;;5076407;28;20267;-66
2023/10/23 06:58:35;;;;;;;;;;;15.00;99.90;;;;;;5076543;28;20009;-66
2023/10/23 07:01:06;;;;;;;;;;;15.50;99.90;;;;;;5079039;28;19916;-66
2023/10/23 07:03:31;;;;;;;;;;;15.80;99.90;;;;;;5077015;28;19924;-66
2023/10/23 07:05:57;;;;;;;;;;;16.50;99.90;;;;;;5076435;28;19916;-66
2023/10/23 07:08:23;;;;;;;;;;;16.80;99.90;;;;;;5076879;28;20011;-66
2023/10/23 07:10:49;;;;;;;;;;;17.10;99.90;;;;;;5072693;28;19919;-66
2023/10/23 07:13:15;;;;;;;;;;;17.70;99.90;;;;;;5074514;28;19920;-66
2023/10/23 07:15:40;;;;;;;;;;;18.20;99.90;;;;;;5073698;28;19913;-67
2023/10/23 07:18:06;;;;;;;;;;;18.80;99.90;;;;;;5072664;28;20003;-67
2023/10/23 07:20:32;;;;;;;;;;;19.20;98.70;;;;;;5068011;28;19912;-66
2023/10/23 07:22:57;;;;;;;;;;;19.50;98.20;;;;;;5076119;28;19922;-66
2023/10/23 07:25:23;;;;;;;;;;;19.70;96.70;;;;;;5071635;28;19913;-67
2023/10/23 07:27:49;;;;;;;;;;;20.20;95.80;;;;;;5069478;28;19919;-67
2023/10/23 07:30:15;;;;;;;;;;;20.80;94.40;;;;;;5075904;28;19916;-67
2023/10/23 07:32:41;;;;;;;;;;;21.00;91.90;;;;;;5076037;28;19932;-67
2023/10/23 07:35:08;;;;;;;;;;;21.20;91.60;;;;;;5069070;28;19917;-67
2023/10/23 07:37:34;;;;;;;;;;;21.60;91.10;;;;;;5056306;28;19921;-67
2023/10/23 07:40:04;;;;;;;;;;;21.70;90.10;;;;;;5061066;28;19936;-66
2023/10/23 07:42:34;;;;;;;;;;;21.90;88.30;;;;;;5075191;28;20444;-65
2023/10/23 07:45:04;;;;;;;;;;;21.70;87.70;;;;;;5075316;28;20366;-66
2023/10/23 07:47:30;;;;;;;;;;;22.00;84.70;;;;;;5071182;28;19913;-67
2023/10/23 07:49:56;;;;;;;;;;;22.00;86.10;;;;;;5075108;28;19960;-67
2023/10/23 07:52:22;;;;;;;;;;;22.30;86.80;;;;;;5071313;28;19917;-68
2023/10/23 07:54:47;;;;;;;;;;;22.70;80.50;;;;;;5073381;28;19908;-68
2023/10/23 07:57:13;;;;;;;;;;;23.00;77.80;;;;;;5074290;28;19919;-68
2023/10/23 07:59:39;;;;;;;;;;;23.20;76.80;;;;;;5074935;28;19912;-68
2023/10/23 08:02:05;;;;;;;;;;;23.90;75.30;;;;;;5073107;28;19922;-68
2023/10/23 08:04:31;;;;;;;;;;;24.50;73.70;;;;;;5075297;28;19913;-69
2023/10/23 08:06:57;;;;;;;;;;;24.50;71.20;;;;;;5079188;28;19920;-68
2023/10/23 08:09:23;;;;;;;;;;;23.60;71.30;;;;;;5079011;28;19919;-68
2023/10/23 08:11:49;;;;;;;;;;;23.60;71.30;;;;;;5078483;28;19928;-68
2023/10/23 08:14:14;;;;;;;;;;;24.00;71.00;;;;;;5078913;28;20435;-68
2023/10/23 08:16:40;;;;;;;;;;;24.50;69.40;;;;;;5075928;28;19912;-69
2023/10/23 08:19:06;;;;;;;;;;;24.30;67.30;;;;;;5079275;28;20384;-68
2023/10/23 08:21:32;;;;;;;;;;;25.00;67.30;;;;;;5071549;28;19947;-68
2023/10/23 08:23:58;;;;;;;;;;;24.90;66.00;;;;;;5078304;28;19919;-68
2023/10/23 08:26:24;;;;;;;;;;;24.90;64.50;;;;;;5078613;28;19913;-67
2023/10/23 08:28:50;;;;;;;;;;;25.40;62.80;;;;;;5079108;28;20381;-67
2023/10/23 08:31:17;;;;;;;;;;;25.00;62.20;;;;;;5078313;28;20369;-68
2023/10/23 08:33:42;;;;;;;;;;;25.20;63.20;;;;;;5078406;28;19927;-68
2023/10/23 08:36:09;;;;;;;;;;;26.10;59.90;;;;;;5078242;28;19942;-68
2023/10/23 08:38:34;;;;;;;;;;;25.20;61.60;;;;;;5078721;28;19913;-68
2023/10/23 08:41:03;;;;;;;;;;;25.50;61.00;;;;;;5078717;28;20335;-69
2023/10/23 08:43:30;;;;;;;;;;;25.80;60.30;;;;;;5079009;28;19920;-69
2023/10/23 08:45:58;;;;;;;;;;;25.40;61.20;;;;;;5078248;28;20002;-67
2023/10/23 08:48:24;;;;;;;;;;;25.70;59.30;;;;;;5075904;28;20424;-69
2023/10/23 08:50:50;;;;;;;;;;;26.20;58.10;;;;;;5078241;28;19916;-68
2023/10/23 08:53:17;;;;;;;;;;;26.40;58.80;;;;;;5078137;28;20434;-69
2023/10/23 08:55:43;;;;;;;;;;;26.70;57.00;;;;;;5077209;28;19913;-67
2023/10/23 08:58:11;;;;;;;;;;;26.70;57.10;;;;;;5076688;28;19912;-68
2023/10/23 09:00:37;;;;;;;;;;;26.80;55.70;;;;;;5077716;28;20328;-69
2023/10/23 09:03:04;;;;;;;;;;;27.10;53.90;;;;;;5078700;28;19970;-69
2023/10/23 09:05:30;;;;;;;;;;;27.10;52.20;;;;;;5078964;28;20409;-69
2023/10/23 09:07:56;;;;;;;;;;;27.10;52.30;;;;;;5078544;28;19917;-69
2023/10/23 09:10:21;;;;;;;;;;;26.70;53.00;;;;;;5078285;28;19912;-69
2023/10/23 09:12:54;;;;;;;;;;;26.20;53.30;;;;;;5078291;28;20011;-70
2023/10/23 09:15:24;;;;;;;;;;;27.00;53.70;;;;;;5078165;28;20370;-69
2023/10/23 09:17:50;;;;;;;;;;;27.40;52.00;;;;;;5091486;28;19919;-70
2023/10/23 09:20:16;;;;;;;;;;;27.60;49.20;;;;;;5098302;28;19912;-70
2023/10/23 09:22:48;;;;;;;;;;;28.10;52.80;;;;;;5098567;28;19912;-70
2023/10/23 09:25:14;;;;;;;;;;;27.80;50.90;;;;;;5098592;28;20538;-70
2023/10/23 09:27:40;;;;;;;;;;;27.10;49.50;;;;;;5095066;28;19979;-70
2023/10/23 09:30:06;;;;;;;;;;;27.80;48.00;;;;;;5078410;28;19916;-70
2023/10/23 09:32:33;;;;;;;;;;;27.70;49.10;;;;;;5077809;28;19990;-70
2023/10/23 09:34:59;;;;;;;;;;;28.70;47.80;;;;;;5078170;28;19912;-70
2023/10/23 09:37:25;;;;;;;;;;;29.00;45.20;;;;;;5077630;28;20035;-70
2023/10/23 09:39:50;;;;;;;;;;;28.60;44.50;;;;;;5077768;28;19963;-70
2023/10/23 09:42:18;;;;;;;;;;;28.80;45.00;;;;;;5077813;28;19920;-70
2023/10/23 09:44:45;;;;;;;;;;;28.60;45.30;;;;;;5077721;28;19912;-70
2023/10/23 09:47:12;;;;;;;;;;;29.00;45.20;;;;;;5077481;28;19913;-70
2023/10/23 09:49:41;;;;;;;;;;;28.50;46.80;;;;;;5077500;28;20350;-70
2023/10/23 09:52:07;;;;;;;;;;;28.90;44.80;;;;;;5076030;28;19920;-70
2023/10/23 09:54:35;;;;;;;;;;;28.90;44.40;;;;;;5060631;28;19913;-70
2023/10/23 09:57:03;;;;;;;;;;;29.00;44.70;;;;;;5075874;28;19912;-71
2023/10/23 09:59:37;;;;;;;;;;;29.40;45.30;;;;;;5077628;28;19913;-71
2023/10/23 10:02:05;;;;;;;;;;;29.80;43.30;;;;;;5077072;28;20316;-70
2023/10/23 10:04:46;;;;;;;;;;;29.00;44.20;;;;;;5076501;28;19935;-61
2023/10/23 10:07:14;;;;;;;;;;;29.80;43.90;;;;;;5076405;28;19918;-59
2023/10/23 10:09:41;;;;;;;;;;;30.20;42.00;;;;;;5077113;28;19913;-59
2023/10/23 10:12:08;;;;;;;;;;;30.10;39.10;;;;;;5076832;28;19916;-59
2023/10/23 10:14:35;;;;;;;;;;;29.90;40.80;;;;;;5076467;28;19923;-59
2023/10/23 10:17:01;;;;;;;;;;;30.40;38.20;;;;;;5077408;28;20358;-59
2023/10/23 10:19:27;;;;;;;;;;;30.30;37.70;;;;;;5075749;28;19940;-59
2023/10/23 10:22:01;;;;;;;;;;;30.50;37.80;;;;;;5076631;28;19967;-59
2023/10/23 10:24:28;;;;;;;;;;;30.90;36.70;;;;;;5076153;28;19974;-59
2023/10/23 10:26:54;;;;;;;;;;;30.90;36.20;;;;;;5075214;28;19916;-61
2023/10/23 10:29:20;;;;;;;;;;;31.20;35.50;;;;;;5075899;28;20416;-59
2023/10/23 10:32:05;;;;;;;;;;;31.00;35.50;;;;;;5076450;28;19916;-59
2023/10/23 10:34:51;;;;;;;;;;;31.10;35.00;;;;;;5075833;28;19927;-59
2023/10/23 10:37:17;;;;;;;;;;;30.70;37.80;;;;;;5076168;28;19951;-59
2023/10/23 10:40:01;;;;;;;;;;;30.20;38.00;;;;;;5076123;28;19913;-60
2023/10/23 10:42:30;;;;;;;;;;;30.30;36.50;;;;;;5072368;28;19940;-60
2023/10/23 10:45:00;;;;;;;;;;;30.40;37.50;;;;;;5076090;28;19924;-60
2023/10/23 10:47:36;;;;;;;;;;;30.50;38.40;;;;;;5075516;28;20277;-60
2023/10/23 10:50:06;;;;;;;;;;;30.90;36.20;;;;;;5072587;28;19913;-60
2023/10/23 10:52:33;;;;;;;;;;;30.40;38.30;;;;;;5075405;28;19916;-60
2023/10/23 10:55:17;;;;;;;;;;;31.30;36.70;;;;;;5075146;28;19912;-60
2023/10/23 10:57:44;;;;;;;;;;;32.00;37.30;;;;;;5075901;28;19919;-60
2023/10/23 11:00:11;;;;;;;;;;;31.70;37.10;;;;;;5075860;28;19939;-60
2023/10/23 11:02:37;;;;;;;;;;;32.00;35.30;;;;;;5074627;28;19916;-60
2023/10/23 11:05:12;;;;;;;;;;;31.80;35.60;;;;;;5072403;28;20263;-60
2023/10/23 11:07:38;;;;;;;;;;;32.00;35.80;;;;;;5073811;28;19946;-60
2023/10/23 11:10:08;;;;;;;;;;;32.30;35.20;;;;;;5069515;28;19999;-59
2023/10/23 11:12:34;;;;;;;;;;;32.10;34.60;;;;;;5072247;28;19923;-60
2023/10/23 11:14:59;;;;;;;;;;;31.40;34.10;;;;;;5074821;28;19916;-61
2023/10/23 11:17:25;;;;;;;;;;;31.50;33.90;;;;;;5059449;28;20402;-61
2023/10/23 11:19:51;;;;;;;;;;;31.10;33.50;;;;;;5057811;28;19916;-61
2023/10/23 11:22:23;;;;;;;;;;;31.20;35.30;;;;;;5066303;28;19958;-61
2023/10/23 11:24:49;;;;;;;;;;;31.70;34.40;;;;;;5066076;28;19998;-61
2023/10/23 11:27:15;;;;;;;;;;;31.00;33.90;;;;;;5058153;28;19952;-61
2023/10/23 11:29:43;;;;;;;;;;;31.30;32.90;;;;;;5060714;28;19913;-61
2023/10/23 11:32:10;;;;;;;;;;;30.90;31.80;;;;;;5075184;28;19913;-61
2023/10/23 11:34:37;;;;;;;;;;;31.40;32.20;;;;;;5075593;28;20009;-61
2023/10/23 11:37:10;;;;;;;;;;;31.60;31.60;;;;;;5075475;28;19916;-61
2023/10/23 11:39:36;;;;;;;;;;;31.70;30.00;;;;;;5075044;28;20461;-61
2023/10/23 11:42:03;;;;;;;;;;;31.60;30.50;;;;;;5075443;28;19927;-61
2023/10/23 11:44:29;;;;;;;;;;;31.50;32.00;;;;;;5076492;28;19958;-61
2023/10/23 11:46:58;;;;;;;;;;;31.30;32.90;;;;;;5075569;28;20266;-61
2023/10/23 11:49:24;;;;;;;;;;;31.60;30.00;;;;;;5073577;28;19944;-59
2023/10/23 11:51:51;;;;;;;;;;;31.70;31.10;;;;;;5075535;28;19916;-59
2023/10/23 11:54:17;;;;;;;;;;;31.40;29.50;;;;;;5075480;28;19915;-59
2023/10/23 11:56:43;;;;;;;;;;;30.80;31.90;;;;;;5070968;28;19927;-59
2023/10/23 11:59:19;;;;;;;;;;;30.60;33.50;;;;;;5075213;28;19913;-59
2023/10/23 12:01:45;;;;;;;;;;;31.00;32.20;;;;;;5075190;28;20397;-59
2023/10/23 12:04:11;;;;;;;;;;;30.70;31.80;;;;;;5075168;28;20331;-59
2023/10/23 12:06:37;;;;;;;;;;;31.20;31.70;;;;;;5075694;28;19909;-59
2023/10/23 12:09:04;;;;;;;;;;;31.20;33.90;;;;;;5075209;28;19923;-59
2023/10/23 12:11:30;;;;;;;;;;;31.50;33.40;;;;;;5074639;28;20010;-59
2023/10/23 12:13:57;;;;;;;;;;;31.50;31.30;;;;;;5075438;28;20285;-59
2023/10/23 12:16:22;;;;;;;;;;;30.70;35.80;;;;;;5076633;28;20396;-59
2023/10/23 12:18:48;;;;;;;;;;;31.30;33.60;;;;;;5095800;28;19916;-59
2023/10/23 12:21:16;;;;;;;;;;;31.00;31.60;;;;;;5080305;28;19920;-59
2023/10/23 12:23:42;;;;;;;;;;;30.70;32.80;;;;;;5075017;28;20298;-59
2023/10/23 12:26:07;;;;;;;;;;;31.10;32.60;;;;;;5075192;28;19913;-60
2023/10/23 12:28:34;;;;;;;;;;;31.60;31.80;;;;;;5075436;28;19960;-60
2023/10/23 12:31:00;;;;;;;;;;;31.60;31.70;;;;;;5074632;28;20319;-60
2023/10/23 12:33:26;;;;;;;;;;;32.10;32.60;;;;;;5074838;28;20011;-60
2023/10/23 12:35:51;;;;;;;;;;;31.30;31.80;;;;;;5075191;28;19912;-60
2023/10/23 12:38:17;;;;;;;;;;;31.40;31.50;;;;;;5077867;28;19912;-60
2023/10/23 12:40:43;;;;;;;;;;;31.10;30.70;;;;;;5074996;28;19919;-60
2023/10/23 12:43:10;;;;;;;;;;;30.10;32.60;;;;;;5075794;28;20003;-60
2023/10/23 12:45:35;;;;;;;;;;;30.80;31.20;;;;;;5075325;28;19920;-60
2023/10/23 12:48:01;;;;;;;;;;;30.00;32.60;;;;;;5075404;28;19919;-60
2023/10/23 12:50:27;;;;;;;;;;;30.20;30.50;;;;;;5075432;28;19913;-60
2023/10/23 12:52:53;;;;;;;;;;;29.60;31.70;;;;;;5079052;28;19912;-60
2023/10/23 12:55:18;;;;;;;;;;;29.20;33.50;;;;;;5079361;28;20354;-60
2023/10/23 12:57:46;;;;;;;;;;;29.80;34.10;;;;;;5079320;28;19916;-60
2023/10/23 13:00:13;;;;;;;;;;;30.40;31.90;;;;;;5078596;28;19913;-60
2023/10/23 13:02:39;;;;;;;;;;;30.50;35.20;;;;;;5078926;28;19916;-60
2023/10/23 13:05:06;;;;;;;;;;;30.70;33.60;;;;;;5079055;28;19924;-60
2023/10/23 13:07:32;;;;;;;;;;;30.10;33.50;;;;;;5078222;28;19934;-60
2023/10/23 13:09:58;;;;;;;;;;;30.20;32.90;;;;;;5078307;28;19916;-60
2023/10/23 13:12:23;;;;;;;;;;;30.40;31.70;;;;;;5078051;28;20325;-60
2023/10/23 13:14:49;;;;;;;;;;;30.20;31.80;;;;;;5078985;28;19917;-60
2023/10/23 13:17:15;;;;;;;;;;;30.30;33.40;;;;;;5082625;28;19916;-60
2023/10/23 13:19:40;;;;;;;;;;;30.30;32.90;;;;;;5078440;28;19935;-60
2023/10/23 13:22:06;;;;;;;;;;;30.40;32.80;;;;;;5078643;28;19908;-60
2023/10/23 13:24:32;;;;;;;;;;;30.70;32.00;;;;;;5078417;28;19912;-60
2023/10/23 13:26:59;;;;;;;;;;;30.10;32.30;;;;;;5078113;28;19917;-61
2023/10/23 13:29:24;;;;;;;;;;;29.90;32.00;;;;;;5077051;28;20294;-60
2023/10/23 13:31:51;;;;;;;;;;;29.90;32.60;;;;;;5078136;28;19917;-60
2023/10/23 13:34:17;;;;;;;;;;;29.90;31.60;;;;;;5077858;28;19919;-60
2023/10/23 13:36:43;;;;;;;;;;;29.70;32.40;;;;;;5076208;28;19947;-60
2023/10/23 13:39:09;;;;;;;;;;;29.70;35.00;;;;;;5078035;28;19919;-60
2023/10/23 13:41:34;;;;;;;;;;;29.90;32.50;;;;;;5078088;28;20277;-60
2023/10/23 13:44:00;;;;;;;;;;;29.70;30.40;;;;;;5077882;28;19951;-60
2023/10/23 13:46:26;;;;;;;;;;;29.30;31.50;;;;;;5078012;28;19912;-60
2023/10/23 13:48:52;;;;;;;;;;;28.90;31.30;;;;;;5077972;28;20247;-60
2023/10/23 13:51:17;;;;;;;;;;;28.50;31.90;;;;;;5077703;28;19938;-60
2023/10/23 13:53:44;;;;;;;;;;;27.90;36.70;;;;;;5077984;28;19913;-60
2023/10/23 13:56:10;;;;;;;;;;;27.70;38.20;;;;;;5077814;28;20227;-60
2023/10/23 13:58:35;;;;;;;;;;;27.50;39.70;;;;;;5077606;28;19913;-60
2023/10/23 14:01:01;;;;;;;;;;;26.90;39.10;;;;;;5077480;28;19916;-60
2023/10/23 14:03:27;;;;;;;;;;;26.40;40.50;;;;;;5077549;28;19913;-60
2023/10/23 14:05:53;;;;;;;;;;;26.30;42.10;;;;;;5077455;28;20003;-60
2023/10/23 14:08:19;;;;;;;;;;;26.20;40.50;;;;;;5077654;28;19912;-60
2023/10/23 14:10:44;;;;;;;;;;;26.00;41.80;;;;;;5077328;28;19969;-60
2023/10/23 14:13:10;;;;;;;;;;;25.90;44.70;;;;;;5077116;28;19923;-59